Time,TemperatureF,DewpointF,PressureIn,WindDirection,WindDirectionDegrees,WindSpeedMPH,WindSpeedGustMPH,Humidity,HourlyPrecipIn,Conditions,Clouds,dailyrainin,SoftwareType,DateUTC
2013-01-11 01:53:00,44.6,33.2,30.04,SSE,158,0.0,0.0,64,0.00,CLR,,0.00,WeatherDisplay:10.37,2013-01-11 07:53:00,
2013-01-11 01:54:00,44.6,33.2,30.04,SSE,158,0.0,0.0,64,0.00,CLR,,0.00,WeatherDisplay:10.37,2013-01-11 07:54:00,
2013-01-11 01:59:00,44.2,33.6,30.04,SSE,158,0.0,0.0,66,0.00,CLR,,0.00,WeatherDisplay:10.37,2013-01-11 07:59:00,
2013-01-11 02:04:00,44.1,33.4,30.04,SSE,158,0.0,0.0,66,0.00,CLR,,0.00,WeatherDisplay:10.37,2013-01-11 08:04:00,
2013-01-11 02:09:00,43.9,33.3,30.04,SSE,158,0.0,0.0,66,0.00,CLR,,0.00,WeatherDisplay:10.37,2013-01-11 08:09:00,
2013-01-11 02:14:00,44.1,33.4,30.01,SSE,158,0.0,0.0,66,0.00,CLR,,0.00,WeatherDisplay:10.37,2013-01-11 08:14:00,
2013-01-11 02:19:00,43.7,33.1,30.01,SSE,158,0.0,0.0,66,0.00,CLR,,0.00,WeatherDisplay:10.37,2013-01-11 08:19:00,
2013-01-11 02:24:00,43.9,33.3,30.01,SSE,158,0.0,0.0,66,0.00,CLR,,0.00,WeatherDisplay:10.37,2013-01-11 08:24:00,
2013-01-11 02:29:00,43.7,33.1,30.04,SSE,158,0.0,0.0,66,0.00,CLR,,0.00,WeatherDisplay:10.37,2013-01-11 08:29:00,
2013-01-11 02:34:00,43.5,35.1,30.04,SSE,158,0.0,0.0,72,0.00,CLR,,0.00,WeatherDisplay:10.37,2013-01-11 08:34:00,
2013-01-11 02:39:00,43.5,35.1,30.04,SSE,158,0.0,0.0,72,0.00,CLR,,0.00,WeatherDisplay:10.37,2013-01-11 08:39:00,
2013-01-11 02:44:00,43.7,35.3,30.04,SSE,158,0.0,0.0,72,0.00,CLR,,0.00,WeatherDisplay:10.37,2013-01-11 08:44:00,
2013-01-11 02:49:00,43.7,35.3,30.04,SSE,158,0.0,0.0,72,0.00,CLR,,0.00,WeatherDisplay:10.37,2013-01-11 08:49:00,
2013-01-11 02:54:00,43.3,34.9,30.04,SSE,158,0.0,0.0,72,0.00,CLR,,0.00,WeatherDisplay:10.37,2013-01-11 08:54:00,
2013-01-11 02:59:00,43.3,34.9,30.04,SSE,158,0.0,0.0,72,0.00,CLR,,0.00,WeatherDisplay:10.37,2013-01-11 08:59:00,
2013-01-11 03:04:00,43.3,34.9,30.04,SSE,158,0.0,0.0,72,0.00,CLR,,0.00,WeatherDisplay:10.37,2013-01-11 09:04:00,
2013-01-11 03:09:00,43.2,34.7,30.04,SSE,158,0.0,0.0,72,0.00,CLR,,0.00,WeatherDisplay:10.37,2013-01-11 09:09:00,
2013-01-11 03:14:00,43.0,34.6,30.04,SSE,158,0.0,0.0,72,0.00,CLR,,0.00,WeatherDisplay:10.37,2013-01-11 09:14:00,
2013-01-11 03:19:00,43.2,34.7,30.04,SSE,158,0.0,0.0,72,0.00,CLR,,0.00,WeatherDisplay:10.37,2013-01-11 09:19:00,
2013-01-11 03:24:00,43.0,34.6,30.04,SSE,158,0.0,0.0,72,0.00,CLR,,0.00,WeatherDisplay:10.37,2013-01-11 09:24:00,
2013-01-11 03:29:00,42.8,34.4,30.04,SSE,158,0.0,0.0,72,0.00,CLR,,0.00,WeatherDisplay:10.37,2013-01-11 09:29:00,
2013-01-11 03:34:00,42.8,34.4,30.04,SSE,158,0.0,0.0,72,0.00,CLR,,0.00,WeatherDisplay:10.37,2013-01-11 09:34:00,
2013-01-11 03:39:00,42.8,34.4,30.04,SSE,158,0.0,0.0,72,0.00,CLR,,0.00,WeatherDisplay:10.37,2013-01-11 09:39:00,
2013-01-11 03:44:00,42.8,34.4,30.04,SSE,158,0.0,0.0,72,0.00,CLR,,0.00,WeatherDisplay:10.37,2013-01-11 09:44:00,
2013-01-11 03:49:00,42.6,36.6,30.04,SSE,158,0.0,0.0,79,0.00,CLR,,0.00,WeatherDisplay:10.37,2013-01-11 09:49:00,
2013-01-11 03:54:00,42.8,36.7,30.04,SSE,158,0.0,0.0,79,0.00,CLR,,0.00,WeatherDisplay:10.37,2013-01-11 09:54:00,
2013-01-11 03:59:00,42.6,36.6,30.04,SSE,158,0.0,0.0,79,0.00,CLR,,0.00,WeatherDisplay:10.37,2013-01-11 09:59:00,
2013-01-11 04:04:00,42.6,36.6,30.04,SSE,158,0.0,0.0,79,0.00,CLR,,0.00,WeatherDisplay:10.37,2013-01-11 10:04:00,
2013-01-11 04:09:00,42.4,36.4,30.04,SSE,158,0.0,0.0,79,0.00,CLR,,0.00,WeatherDisplay:10.37,2013-01-11 10:09:00,
2013-01-11 04:14:00,42.4,36.4,30.04,SSE,158,0.0,0.0,79,0.00,CLR,,0.00,WeatherDisplay:10.37,2013-01-11 10:14:00,
2013-01-11 04:19:00,42.4,36.4,30.04,SSE,158,0.0,0.0,79,0.00,CLR,,0.00,WeatherDisplay:10.37,2013-01-11 10:19:00,
2013-01-11 04:24:00,42.4,36.4,30.04,SSE,158,0.0,0.0,79,0.00,CLR,,0.00,WeatherDisplay:10.37,2013-01-11 10:24:00,
2013-01-11 04:29:00,42.4,36.4,30.01,SSE,158,0.0,0.0,79,0.00,CLR,,0.00,WeatherDisplay:10.37,2013-01-11 10:29:00,
2013-01-11 04:34:00,42.6,36.6,30.01,SSE,158,0.0,0.0,79,0.00,CLR,,0.00,WeatherDisplay:10.37,2013-01-11 10:34:00,
2013-01-11 04:39:00,42.6,36.6,30.01,SSE,158,0.0,0.0,79,0.00,CLR,,0.00,WeatherDisplay:10.37,2013-01-11 10:39:00,
2013-01-11 04:44:00,42.6,38.7,30.01,SSE,158,0.0,0.0,86,0.00,CLR,,0.00,WeatherDisplay:10.37,2013-01-11 10:44:00,
2013-01-11 04:49:00,42.4,36.4,30.01,SSE,158,0.0,0.0,79,0.00,CLR,,0.00,WeatherDisplay:10.37,2013-01-11 10:49:00,
2013-01-11 04:54:00,42.4,38.5,30.01,SSE,158,0.0,0.0,86,0.00,CLR,,0.00,WeatherDisplay:10.37,2013-01-11 10:54:00,
2013-01-11 04:59:00,42.4,38.5,30.01,SSE,158,0.0,0.0,86,0.00,CLR,,0.00,WeatherDisplay:10.37,2013-01-11 10:59:00,
2013-01-11 05:04:00,42.6,38.7,30.01,SSE,158,0.0,0.0,86,0.00,CLR,,0.00,WeatherDisplay:10.37,2013-01-11 11:04:00,
2013-01-11 05:09:00,42.8,38.3,30.01,SSE,158,0.0,0.0,84,0.00,CLR,,0.00,WeatherDisplay:10.37,2013-01-11 11:09:00,
2013-01-11 05:14:00,42.8,38.3,30.01,SSE,158,0.0,0.0,84,0.00,CLR,,0.00,WeatherDisplay:10.37,2013-01-11 11:14:00,
2013-01-11 05:19:00,42.8,38.3,30.01,SSE,158,0.0,0.0,84,0.00,CLR,,0.00,WeatherDisplay:10.37,2013-01-11 11:19:00,
2013-01-11 05:24:00,42.8,38.3,30.01,SSE,158,0.0,0.0,84,0.00,CLR,,0.00,WeatherDisplay:10.37,2013-01-11 11:24:00,
2013-01-11 05:29:00,43.0,38.5,30.01,SSE,158,0.0,0.0,84,0.00,CLR,,0.00,WeatherDisplay:10.37,2013-01-11 11:29:00,
2013-01-11 05:34:00,43.2,38.7,30.01,SSE,158,0.0,0.0,84,0.00,CLR,,0.00,WeatherDisplay:10.37,2013-01-11 11:34:00,
2013-01-11 05:39:00,43.3,39.4,30.01,SSE,158,0.0,0.0,86,0.00,CLR,,0.00,WeatherDisplay:10.37,2013-01-11 11:39:00,
2013-01-11 05:44:00,43.2,39.3,30.01,SSE,158,0.0,0.0,86,0.00,CLR,,0.00,WeatherDisplay:10.37,2013-01-11 11:44:00,
2013-01-11 05:49:00,43.3,39.4,30.01,SSE,158,0.0,0.0,86,0.00,CLR,,0.00,WeatherDisplay:10.37,2013-01-11 11:49:00,
2013-01-11 05:54:00,43.2,39.3,30.01,SSE,158,0.0,0.0,86,0.00,CLR,,0.00,WeatherDisplay:10.37,2013-01-11 11:54:00,
2013-01-11 05:59:00,43.3,39.4,30.01,SSE,158,0.0,0.0,86,0.00,CLR,,0.00,WeatherDisplay:10.37,2013-01-11 11:59:00,
2013-01-11 06:04:00,43.2,39.3,30.01,SSE,158,0.0,0.0,86,0.00,CLR,,0.00,WeatherDisplay:10.37,2013-01-11 12:04:00,
2013-01-11 06:09:00,43.3,39.4,30.01,SSE,158,0.0,0.0,86,0.00,CLR,,0.00,WeatherDisplay:10.37,2013-01-11 12:09:00,
2013-01-11 06:14:00,43.5,39.6,30.01,SSE,158,0.0,0.0,86,0.00,CLR,,0.00,WeatherDisplay:10.37,2013-01-11 12:14:00,
2013-01-11 06:19:00,43.7,39.8,30.01,North,0,2.3,2.3,86,0.00,CLR,,0.00,WeatherDisplay:10.37,2013-01-11 12:19:00,
2013-01-11 06:24:00,43.7,39.8,30.01,North,0,0.0,0.0,86,0.00,CLR,,0.00,WeatherDisplay:10.37,2013-01-11 12:24:00,
2013-01-11 06:29:00,43.7,39.8,30.01,North,0,0.0,0.0,86,0.00,CLR,,0.00,WeatherDisplay:10.37,2013-01-11 12:29:00,
2013-01-11 06:34:00,43.9,40.0,30.01,North,0,0.0,0.0,86,0.00,CLR,,0.00,WeatherDisplay:10.37,2013-01-11 12:34:00,
2013-01-11 06:39:00,43.7,39.8,30.01,North,0,0.0,0.0,86,0.00,CLR,,0.00,WeatherDisplay:10.37,2013-01-11 12:39:00,
2013-01-11 06:44:00,43.9,40.0,30.01,North,0,0.0,0.0,86,0.00,CLR,,0.00,WeatherDisplay:10.37,2013-01-11 12:44:00,
2013-01-11 06:49:00,43.9,40.0,30.01,North,0,0.0,0.0,86,0.00,CLR,,0.00,WeatherDisplay:10.37,2013-01-11 12:49:00,
2013-01-11 06:54:00,43.7,39.8,30.01,North,0,0.0,0.0,86,0.00,CLR,,0.00,WeatherDisplay:10.37,2013-01-11 12:54:00,
2013-01-11 07:00:00,43.7,39.8,30.01,North,0,0.0,0.0,86,0.00,CLR,,0.00,WeatherDisplay:10.37,2013-01-11 13:00:00,
2013-01-11 07:04:00,43.7,39.8,30.01,North,0,0.0,0.0,86,0.00,CLR,,0.00,WeatherDisplay:10.37,2013-01-11 13:04:00,
2013-01-11 07:09:00,43.9,40.0,30.01,North,0,0.0,0.0,86,0.00,CLR,,0.00,WeatherDisplay:10.37,2013-01-11 13:09:00,
2013-01-11 07:15:00,44.1,40.1,30.01,North,0,0.0,0.0,86,0.00,CLR,,0.00,WeatherDisplay:10.37,2013-01-11 13:15:00,
2013-01-11 07:19:00,43.9,40.0,30.01,North,0,0.0,0.9,86,0.00,CLR,,0.00,WeatherDisplay:10.37,2013-01-11 13:19:00,
2013-01-11 07:25:00,44.1,40.1,30.01,North,0,0.0,1.1,86,0.00,CLR,,0.00,WeatherDisplay:10.37,2013-01-11 13:25:00,
2013-01-11 07:30:00,44.1,40.1,30.01,North,0,0.0,0.0,86,0.00,CLR,,0.00,WeatherDisplay:10.37,2013-01-11 13:30:00,
2013-01-11 07:35:00,44.1,40.1,30.01,North,0,0.0,0.0,86,0.00,CLR,,0.00,WeatherDisplay:10.37,2013-01-11 13:35:00,
2013-01-11 07:40:00,44.2,40.3,30.01,North,0,0.0,0.0,86,0.00,CLR,,0.00,WeatherDisplay:10.37,2013-01-11 13:40:00,
2013-01-11 07:45:00,44.4,40.5,30.01,North,0,0.0,0.0,86,0.00,CLR,,0.00,WeatherDisplay:10.37,2013-01-11 13:45:00,
2013-01-11 07:50:00,44.6,40.1,30.01,North,0,1.1,1.6,84,0.00,CLR,,0.00,WeatherDisplay:10.37,2013-01-11 13:50:00,
2013-01-11 07:55:00,45.0,40.4,30.01,North,0,0.0,0.0,84,0.00,SCT,,0.00,WeatherDisplay:10.37,2013-01-11 13:55:00,
2013-01-11 08:00:00,45.1,40.6,30.01,North,0,2.3,2.3,84,0.00,SCT,,0.00,WeatherDisplay:10.37,2013-01-11 14:00:00,
2013-01-11 08:05:00,45.5,40.9,30.01,NE,45,2.3,2.3,84,0.00,SCT,,0.00,WeatherDisplay:10.37,2013-01-11 14:05:00,
2013-01-11 08:10:00,45.9,41.3,30.01,NE,45,1.4,1.4,84,0.00,SCT,,0.00,WeatherDisplay:10.37,2013-01-11 14:10:00,
2013-01-11 08:15:00,46.2,41.7,30.01,ENE,68,0.0,0.0,84,0.00,SCT,,0.00,WeatherDisplay:10.37,2013-01-11 14:15:00,
2013-01-11 08:20:00,46.6,41.4,30.01,ENE,68,0.0,0.0,82,0.00,SCT,,0.00,WeatherDisplay:10.37,2013-01-11 14:20:00,
2013-01-11 08:25:00,46.9,40.1,30.01,ENE,68,0.0,0.0,77,0.00,SCT,,0.00,WeatherDisplay:10.37,2013-01-11 14:25:00,
2013-01-11 08:30:00,47.1,40.3,30.01,North,0,1.1,1.1,77,0.00,SCT,,0.00,WeatherDisplay:10.37,2013-01-11 14:30:00,
2013-01-11 08:35:00,47.5,40.6,30.01,North,0,0.0,0.0,77,0.00,SCT,,0.00,WeatherDisplay:10.37,2013-01-11 14:35:00,
2013-01-11 08:40:00,47.7,40.8,30.01,NNW,338,1.6,1.6,77,0.00,SCT,,0.00,WeatherDisplay:10.37,2013-01-11 14:40:00,
2013-01-11 08:45:00,47.7,40.8,30.01,NNW,338,1.1,1.4,77,0.00,SCT,,0.00,WeatherDisplay:10.37,2013-01-11 14:45:00,
2013-01-11 08:50:00,48.0,41.2,30.01,NNW,338,0.0,0.0,77,0.00,SCT,,0.00,WeatherDisplay:10.37,2013-01-11 14:50:00,
2013-01-11 08:55:00,48.2,41.3,30.01,NNW,338,1.1,1.1,77,0.00,BKN,,0.00,WeatherDisplay:10.37,2013-01-11 14:55:00,
2013-01-11 09:00:00,48.9,42.0,30.01,NNW,338,1.1,1.1,77,0.00,BKN,,0.00,WeatherDisplay:10.37,2013-01-11 15:00:00,
2013-01-11 09:05:00,49.6,39.9,30.01,North,0,2.3,0.0,69,0.00,BKN,,0.00,WeatherDisplay:10.37,2013-01-11 15:05:00,
2013-01-11 09:10:00,50.4,40.6,30.01,ENE,68,3.1,3.1,69,0.00,BKN,,0.00,WeatherDisplay:10.37,2013-01-11 15:10:00,
2013-01-11 09:15:00,51.1,41.3,30.01,NE,45,2.3,2.4,69,0.00,OVC,,0.00,WeatherDisplay:10.37,2013-01-11 15:15:00,
2013-01-11 09:20:00,51.6,38.6,30.01,NE,45,3.5,3.5,61,0.00,OVC,,0.00,WeatherDisplay:10.37,2013-01-11 15:20:00,
2013-01-11 09:25:00,52.5,39.5,30.01,NE,45,2.3,2.4,61,0.00,OVC,,0.00,WeatherDisplay:10.37,2013-01-11 15:25:00,
2013-01-11 09:30:00,53.1,40.0,30.01,NE,45,3.5,3.5,61,0.00,OVC,,0.00,WeatherDisplay:10.37,2013-01-11 15:30:00,
2013-01-11 09:35:00,53.6,39.2,30.01,NE,45,3.5,3.5,58,0.00,OVC,,0.00,WeatherDisplay:10.37,2013-01-11 15:35:00,
2013-01-11 09:40:00,54.1,39.7,30.01,ENE,68,4.6,4.6,58,0.00,OVC,,0.00,WeatherDisplay:10.37,2013-01-11 15:40:00,
2013-01-11 09:45:00,54.7,40.2,30.01,NE,45,2.3,2.3,58,0.00,OVC,,0.00,WeatherDisplay:10.37,2013-01-11 15:45:00,
2013-01-11 09:50:00,55.4,40.9,30.01,NE,45,3.5,3.5,58,0.00,OVC,,0.00,WeatherDisplay:10.37,2013-01-11 15:50:00,
2013-01-11 09:55:00,55.8,41.2,30.01,North,0,3.5,3.5,58,0.00,OVC,,0.00,WeatherDisplay:10.37,2013-01-11 15:55:00,
2013-01-11 10:00:00,55.9,41.4,30.01,NE,45,4.6,4.6,58,0.00,OVC,,0.00,WeatherDisplay:10.37,2013-01-11 16:00:00,
2013-01-11 10:05:00,57.0,42.4,30.01,NE,45,2.3,0.0,58,0.00,OVC,,0.00,WeatherDisplay:10.37,2013-01-11 16:05:00,
2013-01-11 10:10:00,57.7,43.1,30.01,ENE,68,2.3,2.3,58,0.00,OVC,,0.00,WeatherDisplay:10.37,2013-01-11 16:10:00,
2013-01-11 10:15:00,58.3,43.6,30.01,North,0,0.0,0.0,58,0.00,OVC,,0.00,WeatherDisplay:10.37,2013-01-11 16:15:00,
2013-01-11 10:20:00,58.5,43.7,30.01,SSE,158,2.3,2.3,58,0.00,OVC,,0.00,WeatherDisplay:10.37,2013-01-11 16:20:00,
2013-01-11 10:25:00,58.6,43.9,30.01,South,180,2.3,2.3,58,0.00,OVC,,0.00,WeatherDisplay:10.37,2013-01-11 16:25:00,
2013-01-11 10:30:00,58.5,43.7,29.98,SE,135,1.1,0.0,58,0.00,OVC,,0.00,WeatherDisplay:10.37,2013-01-11 16:30:00,
2013-01-11 10:35:00,58.6,43.9,29.98,ESE,112,1.1,1.1,58,0.00,OVC,,0.00,WeatherDisplay:10.37,2013-01-11 16:35:00,
2013-01-11 10:40:00,59.0,42.8,29.98,ENE,68,2.3,2.3,55,0.00,OVC,,0.00,WeatherDisplay:10.37,2013-01-11 16:40:00,
2013-01-11 10:45:00,59.0,42.8,30.01,NE,45,3.5,3.5,55,0.00,OVC,,0.00,WeatherDisplay:10.37,2013-01-11 16:45:00,
2013-01-11 10:50:00,59.4,43.2,30.01,ESE,112,1.1,0.0,55,0.00,OVC,,0.00,WeatherDisplay:10.37,2013-01-11 16:50:00,
2013-01-11 10:55:00,59.9,43.7,30.01,SE,135,2.3,0.0,55,0.00,OVC,,0.00,WeatherDisplay:10.37,2013-01-11 16:55:00,
2013-01-11 11:00:00,60.1,43.9,29.98,East,90,2.4,2.4,55,0.00,OVC,,0.00,WeatherDisplay:10.37,2013-01-11 17:00:00,
2013-01-11 11:05:00,60.4,44.2,29.98,SE,135,1.1,0.0,55,0.00,OVC,,0.00,WeatherDisplay:10.37,2013-01-11 17:05:00,
2013-01-11 11:10:00,60.6,44.4,29.98,SE,135,2.6,2.6,55,0.00,OVC,,0.00,WeatherDisplay:10.37,2013-01-11 17:10:00,
2013-01-11 11:15:00,60.4,44.2,29.95,South,180,4.6,4.6,55,0.00,OVC,,0.00,WeatherDisplay:10.37,2013-01-11 17:15:00,
2013-01-11 11:20:00,61.0,44.7,29.95,ENE,68,3.5,3.5,55,0.00,OVC,,0.00,WeatherDisplay:10.37,2013-01-11 17:20:00,
2013-01-11 11:25:00,61.5,45.2,29.95,East,90,2.3,2.3,55,0.00,OVC,,0.00,WeatherDisplay:10.37,2013-01-11 17:25:00,
2013-01-11 11:30:00,61.9,45.5,29.98,South,180,2.9,2.9,55,0.00,OVC,,0.00,WeatherDisplay:10.37,2013-01-11 17:30:00,
2013-01-11 11:35:00,62.6,41.5,29.98,SE,135,2.3,2.3,46,0.00,OVC,,0.00,WeatherDisplay:10.37,2013-01-11 17:35:00,
2013-01-11 11:40:00,62.6,44.7,29.98,SE,135,2.3,2.3,52,0.00,OVC,,0.00,WeatherDisplay:10.37,2013-01-11 17:40:00,
2013-01-11 11:45:00,63.9,42.7,29.98,SSW,202,2.3,2.3,46,0.00,OVC,,0.00,WeatherDisplay:10.37,2013-01-11 17:45:00,
2013-01-11 11:50:00,64.8,41.7,29.98,NE,45,3.5,3.5,43,0.00,OVC,,0.00,WeatherDisplay:10.37,2013-01-11 17:50:00,
2013-01-11 11:55:00,65.3,42.2,29.98,SSW,202,5.4,5.4,43,0.00,OVC,,0.00,WeatherDisplay:10.37,2013-01-11 17:55:00,
2013-01-11 12:00:00,64.8,41.7,29.95,SW,225,3.5,3.5,43,0.00,OVC,,0.00,WeatherDisplay:10.37,2013-01-11 18:00:00,
2013-01-11 12:05:00,65.7,42.5,29.95,WSW,248,4.6,4.6,43,0.00,OVC,,0.00,WeatherDisplay:10.37,2013-01-11 18:05:00,
2013-01-11 12:10:00,66.6,43.4,29.95,West,270,5.4,5.4,43,0.00,OVC,,0.00,WeatherDisplay:10.37,2013-01-11 18:10:00,
2013-01-11 12:46:00,67.8,44.5,29.89,West,270,5.8,5.8,43,0.00,OVC,,0.00,WeatherDisplay:10.37,2013-01-11 18:46:00,
2013-01-11 12:51:00,68.2,44.8,29.89,West,270,5.8,5.8,43,0.00,BKN,,0.00,WeatherDisplay:10.37,2013-01-11 18:51:00,
2013-01-11 12:56:00,67.8,44.5,29.89,SW,225,4.6,4.6,43,0.00,BKN,,0.00,WeatherDisplay:10.37,2013-01-11 18:56:00,
2013-01-11 13:01:00,67.5,44.2,29.92,SW,225,3.5,3.5,43,0.00,BKN,,0.00,WeatherDisplay:10.37,2013-01-11 19:01:00,
2013-01-11 13:06:00,67.5,44.2,29.92,SW,225,3.5,3.5,43,0.00,BKN,,0.00,WeatherDisplay:10.37,2013-01-11 19:06:00,
2013-01-11 13:11:00,67.8,44.5,29.92,WSW,248,4.6,4.6,43,0.00,SCT,,0.00,WeatherDisplay:10.37,2013-01-11 19:11:00,
2013-01-11 13:16:00,67.8,44.5,29.92,West,270,2.3,2.4,43,0.00,SCT,,0.00,WeatherDisplay:10.37,2013-01-11 19:16:00,
2013-01-11 13:21:00,67.5,44.2,29.92,SSW,202,3.5,3.5,43,0.00,SCT,,0.00,WeatherDisplay:10.37,2013-01-11 19:21:00,
2013-01-11 13:26:00,67.6,44.3,29.92,WSW,248,3.5,3.6,43,0.00,SCT,,0.00,WeatherDisplay:10.37,2013-01-11 19:26:00,
2013-01-11 13:31:00,68.4,45.0,29.89,West,270,4.6,4.6,43,0.00,CLR,,0.00,WeatherDisplay:10.37,2013-01-11 19:31:00,
2013-01-11 13:36:00,68.9,45.5,29.89,SSW,202,3.5,3.5,43,0.00,CLR,,0.00,WeatherDisplay:10.37,2013-01-11 19:36:00,
2013-01-11 13:41:00,68.5,45.1,29.89,WNW,292,2.3,2.3,43,0.00,CLR,,0.00,WeatherDisplay:10.37,2013-01-11 19:41:00,
2013-01-11 13:46:00,68.5,45.1,29.89,SSW,202,2.3,2.3,43,0.00,CLR,,0.00,WeatherDisplay:10.37,2013-01-11 19:46:00,
2013-01-11 13:51:00,68.5,45.1,29.89,WSW,248,2.3,2.3,43,0.00,CLR,,0.00,WeatherDisplay:10.37,2013-01-11 19:51:00,
2013-01-11 13:56:00,68.9,45.5,29.89,WNW,292,2.3,2.3,43,0.00,CLR,,0.00,WeatherDisplay:10.37,2013-01-11 19:56:00,
2013-01-11 14:01:00,69.3,45.8,29.86,ESE,112,2.3,2.3,43,0.00,CLR,,0.00,WeatherDisplay:10.37,2013-01-11 20:01:00,
2013-01-11 14:06:00,69.1,45.6,29.86,NE,45,4.6,4.6,43,0.00,CLR,,0.00,WeatherDisplay:10.37,2013-01-11 20:06:00,
2013-01-11 14:11:00,68.9,45.5,29.86,East,90,3.5,3.5,43,0.00,CLR,,0.00,WeatherDisplay:10.37,2013-01-11 20:11:00,
2013-01-11 14:16:00,69.3,45.8,29.86,NW,315,1.6,0.0,43,0.00,CLR,,0.00,WeatherDisplay:10.37,2013-01-11 20:16:00,
2013-01-11 14:21:00,69.1,45.6,29.86,NW,315,2.3,2.3,43,0.00,CLR,,0.00,WeatherDisplay:10.37,2013-01-11 20:21:00,
2013-01-11 14:26:00,69.1,45.6,29.86,North,0,3.5,3.5,43,0.00,CLR,,0.00,WeatherDisplay:10.37,2013-01-11 20:26:00,
2013-01-11 14:31:00,68.7,45.3,29.86,NW,315,3.5,3.5,43,0.00,CLR,,0.00,WeatherDisplay:10.37,2013-01-11 20:31:00,
2013-01-11 14:36:00,68.2,44.8,29.86,NW,315,5.8,5.8,43,0.00,CLR,,0.00,WeatherDisplay:10.37,2013-01-11 20:36:00,
2013-01-11 14:41:00,67.8,44.5,29.86,NNW,338,5.8,5.8,43,0.00,CLR,,0.00,WeatherDisplay:10.37,2013-01-11 20:41:00,
2013-01-11 14:46:00,68.4,45.0,29.86,NW,315,4.6,4.6,43,0.00,CLR,,0.00,WeatherDisplay:10.37,2013-01-11 20:46:00,
2013-01-11 14:51:00,68.5,45.1,29.86,NW,315,3.5,3.5,43,0.00,SCT,,0.00,WeatherDisplay:10.37,2013-01-11 20:51:00,
2013-01-11 14:56:00,68.7,45.3,29.86,NNE,22,4.6,4.6,43,0.00,SCT,,0.00,WeatherDisplay:10.37,2013-01-11 20:56:00,
2013-01-11 15:01:00,68.9,45.5,29.86,NNE,22,3.5,3.5,43,0.00,SCT,,0.00,WeatherDisplay:10.37,2013-01-11 21:01:00,
2013-01-11 15:06:00,68.5,45.1,29.86,NW,315,4.6,4.6,43,0.00,SCT,,0.00,WeatherDisplay:10.37,2013-01-11 21:06:00,
2013-01-11 15:11:00,68.2,44.8,29.86,NW,315,3.5,3.5,43,0.00,SCT,,0.00,WeatherDisplay:10.37,2013-01-11 21:11:00,
2013-01-11 15:16:00,68.5,45.1,29.86,NNW,338,4.6,4.6,43,0.00,SCT,,0.00,WeatherDisplay:10.37,2013-01-11 21:16:00,
2013-01-11 15:21:00,68.5,45.1,29.86,North,0,4.6,4.6,43,0.00,SCT,,0.00,WeatherDisplay:10.37,2013-01-11 21:21:00,
2013-01-11 15:26:00,68.7,45.3,29.86,NNW,338,4.6,4.6,43,0.00,SCT,,0.00,WeatherDisplay:10.37,2013-01-11 21:26:00,
2013-01-11 15:31:00,69.3,45.8,29.86,NNW,338,3.5,3.5,43,0.00,CLR,,0.00,WeatherDisplay:10.37,2013-01-11 21:31:00,
2013-01-11 15:36:00,69.6,46.1,29.86,WNW,292,2.3,2.3,43,0.00,CLR,,0.00,WeatherDisplay:10.37,2013-01-11 21:36:00,
2013-01-11 15:41:00,70.2,44.0,29.86,NE,45,2.3,2.9,39,0.00,CLR,,0.00,WeatherDisplay:10.37,2013-01-11 21:41:00,
2013-01-11 15:46:00,70.9,44.7,29.86,East,90,5.8,5.8,39,0.00,CLR,,0.00,WeatherDisplay:10.37,2013-01-11 21:46:00,
2013-01-11 15:51:00,71.6,45.3,29.86,ESE,112,4.6,4.6,39,0.00,CLR,,0.00,WeatherDisplay:10.37,2013-01-11 21:51:00,
2013-01-11 15:56:00,71.8,45.5,29.86,East,90,4.6,4.6,39,0.00,CLR,,0.00,WeatherDisplay:10.37,2013-01-11 21:56:00,
2013-01-11 16:01:00,71.8,45.5,29.83,East,90,3.1,3.1,39,0.00,CLR,,0.00,WeatherDisplay:10.37,2013-01-11 22:01:00,
2013-01-11 16:06:00,72.7,46.3,29.83,ENE,68,1.1,1.1,39,0.00,CLR,,0.00,WeatherDisplay:10.37,2013-01-11 22:06:00,
2013-01-11 16:11:00,72.9,46.4,29.83,ESE,112,2.3,2.9,39,0.00,CLR,,0.00,WeatherDisplay:10.37,2013-01-11 22:11:00,
2013-01-11 16:16:00,72.5,46.1,29.83,NE,45,5.8,5.8,39,0.00,CLR,,0.00,WeatherDisplay:10.37,2013-01-11 22:16:00,
2013-01-11 16:21:00,72.5,46.1,29.83,NE,45,6.2,6.2,39,0.00,CLR,,0.00,WeatherDisplay:10.37,2013-01-11 22:21:00,
2013-01-11 16:26:00,73.0,99.9,29.83,ENE,68,3.5,3.5,130,0.00,CLR,,0.00,WeatherDisplay:10.37,2013-01-11 22:26:00,
2013-01-11 16:31:00,73.6,47.1,29.81,East,90,3.5,3.5,39,0.00,CLR,,0.00,WeatherDisplay:10.37,2013-01-11 22:31:00,
2013-01-11 16:36:00,73.6,47.1,29.81,NNE,22,5.8,5.8,39,0.00,CLR,,0.00,WeatherDisplay:10.37,2013-01-11 22:36:00,
2013-01-11 16:41:00,73.6,47.1,29.81,SE,135,3.5,3.5,39,0.00,CLR,,0.00,WeatherDisplay:10.37,2013-01-11 22:41:00,
2013-01-11 16:46:00,73.4,46.9,29.81,NE,45,5.8,5.8,39,0.00,CLR,,0.00,WeatherDisplay:10.37,2013-01-11 22:46:00,
2013-01-11 16:51:00,73.4,46.9,29.81,East,90,2.4,2.4,39,0.00,CLR,,0.00,WeatherDisplay:10.37,2013-01-11 22:51:00,
2013-01-11 16:56:00,73.0,46.6,29.81,ENE,68,2.3,2.3,39,0.00,CLR,,0.00,WeatherDisplay:10.37,2013-01-11 22:56:00,
2013-01-11 17:01:00,72.7,46.3,29.81,East,90,2.3,2.3,39,0.00,CLR,,0.00,WeatherDisplay:10.37,2013-01-11 23:01:00,
2013-01-11 17:06:00,72.5,46.1,29.81,ESE,112,3.5,3.5,39,0.00,CLR,,0.00,WeatherDisplay:10.37,2013-01-11 23:06:00,
2013-01-11 17:11:00,72.1,99.9,29.81,ENE,68,1.1,0.0,128,0.00,CLR,,0.00,WeatherDisplay:10.37,2013-01-11 23:11:00,
2013-01-11 17:16:00,72.0,99.9,29.81,ESE,112,2.3,2.3,128,0.00,CLR,,0.00,WeatherDisplay:10.37,2013-01-11 23:16:00,
2013-01-11 17:21:00,71.4,45.2,29.81,ESE,112,1.1,2.4,39,0.00,CLR,,0.00,WeatherDisplay:10.37,2013-01-11 23:21:00,
2013-01-11 17:26:00,71.2,45.0,29.81,East,90,2.4,2.4,39,0.00,CLR,,0.00,WeatherDisplay:10.37,2013-01-11 23:26:00,
2013-01-11 17:31:00,70.9,44.7,29.83,SE,135,1.1,1.4,39,0.00,CLR,,0.00,WeatherDisplay:10.37,2013-01-11 23:31:00,
2013-01-11 17:36:00,70.7,44.5,29.83,ESE,112,2.3,2.3,39,0.00,CLR,,0.00,WeatherDisplay:10.37,2013-01-11 23:36:00,
2013-01-11 17:41:00,70.3,44.2,29.83,East,90,1.1,1.1,39,0.00,CLR,,0.00,WeatherDisplay:10.37,2013-01-11 23:41:00,
2013-01-11 17:47:00,70.0,43.9,29.83,East,90,0.0,0.0,39,0.00,CLR,,0.00,WeatherDisplay:10.37,2013-01-11 23:47:00,
2013-01-11 17:51:00,69.6,46.1,29.83,NE,45,2.3,2.3,43,0.00,CLR,,0.00,WeatherDisplay:10.37,2013-01-11 23:51:00,
2013-01-11 17:57:00,69.3,45.8,29.83,ENE,68,2.3,2.3,43,0.00,CLR,,0.00,WeatherDisplay:10.37,2013-01-11 23:57:00,
2013-01-11 18:02:00,68.9,45.5,29.83,ENE,68,2.3,2.3,43,0.00,CLR,,0.00,WeatherDisplay:10.37,2013-01-12 00:02:00,
2013-01-11 18:07:00,68.5,45.1,29.83,NE,45,2.3,2.3,43,0.00,CLR,,0.00,WeatherDisplay:10.37,2013-01-12 00:07:00,
2013-01-11 18:12:00,68.2,44.8,29.83,ENE,68,2.3,2.3,43,0.00,CLR,,0.00,WeatherDisplay:10.37,2013-01-12 00:12:00,
2013-01-11 18:17:00,67.6,44.3,29.83,ENE,68,2.3,2.3,43,0.00,CLR,,0.00,WeatherDisplay:10.37,2013-01-12 00:17:00,
2013-01-11 18:22:00,67.5,44.2,29.83,ENE,68,3.5,3.5,43,0.00,CLR,,0.00,WeatherDisplay:10.37,2013-01-12 00:22:00,
2013-01-11 18:27:00,67.3,44.0,29.83,ENE,68,2.3,2.3,43,0.00,CLR,,0.00,WeatherDisplay:10.37,2013-01-12 00:27:00,
2013-01-11 18:32:00,67.5,44.2,29.83,ESE,112,1.1,1.1,43,0.00,CLR,,0.00,WeatherDisplay:10.37,2013-01-12 00:32:00,
2013-01-11 18:37:00,67.8,44.5,29.83,East,90,3.5,3.5,43,0.00,CLR,,0.00,WeatherDisplay:10.37,2013-01-12 00:37:00,
2013-01-11 18:42:00,67.8,49.5,29.83,ESE,112,2.3,2.3,52,0.00,CLR,,0.00,WeatherDisplay:10.37,2013-01-12 00:42:00,
2013-01-11 18:47:00,67.6,49.4,29.83,NE,45,1.1,0.0,52,0.00,CLR,,0.00,WeatherDisplay:10.37,2013-01-12 00:47:00,
2013-01-11 18:52:00,67.3,49.0,29.83,ENE,68,2.3,2.3,52,0.00,CLR,,0.00,WeatherDisplay:10.37,2013-01-12 00:52:00,
2013-01-11 18:57:00,67.3,49.0,29.83,East,90,3.5,3.5,52,0.00,CLR,,0.00,WeatherDisplay:10.37,2013-01-12 00:57:00,
2013-01-11 19:02:00,67.1,48.9,29.86,ESE,112,1.1,1.1,52,0.00,CLR,,0.00,WeatherDisplay:10.37,2013-01-12 01:02:00,
2013-01-11 19:07:00,67.1,48.9,29.86,NE,45,2.4,2.4,52,0.00,CLR,,0.00,WeatherDisplay:10.37,2013-01-12 01:07:00,
2013-01-11 19:12:00,67.1,48.9,29.86,East,90,1.1,1.1,52,0.00,CLR,,0.00,WeatherDisplay:10.37,2013-01-12 01:12:00,
2013-01-11 19:17:00,67.1,48.9,29.86,East,90,4.3,4.3,52,0.00,CLR,,0.00,WeatherDisplay:10.37,2013-01-12 01:17:00,
2013-01-11 19:22:00,67.1,48.9,29.86,ESE,112,3.5,3.5,52,0.00,CLR,,0.00,WeatherDisplay:10.37,2013-01-12 01:22:00,
2013-01-11 19:27:00,67.1,48.9,29.86,SSE,158,3.5,3.5,52,0.00,CLR,,0.00,WeatherDisplay:10.37,2013-01-12 01:27:00,
2013-01-11 19:32:00,67.3,49.0,29.86,ESE,112,3.5,3.5,52,0.00,CLR,,0.00,WeatherDisplay:10.37,2013-01-12 01:32:00,
2013-01-11 19:37:00,67.3,49.0,29.86,East,90,3.5,3.5,52,0.00,CLR,,0.00,WeatherDisplay:10.37,2013-01-12 01:37:00,
2013-01-11 19:42:00,67.3,49.0,29.86,East,90,4.6,4.6,52,0.00,CLR,,0.00,WeatherDisplay:10.37,2013-01-12 01:42:00,
2013-01-11 19:47:00,67.1,48.9,29.86,East,90,2.3,2.3,52,0.00,CLR,,0.00,WeatherDisplay:10.37,2013-01-12 01:47:00,
2013-01-11 19:52:00,67.1,51.8,29.86,ENE,68,3.5,3.5,58,0.00,CLR,,0.00,WeatherDisplay:10.37,2013-01-12 01:52:00,
2013-01-11 19:57:00,67.1,51.8,29.86,East,90,4.6,4.6,58,0.00,CLR,,0.00,WeatherDisplay:10.37,2013-01-12 01:57:00,
2013-01-11 20:02:00,67.3,52.0,29.86,East,90,5.8,5.8,58,0.00,CLR,,0.00,WeatherDisplay:10.37,2013-01-12 02:02:00,
2013-01-11 20:07:00,67.3,52.0,29.86,East,90,2.3,2.3,58,0.00,CLR,,0.00,WeatherDisplay:10.37,2013-01-12 02:07:00,
2013-01-11 20:12:00,67.3,52.0,29.86,East,90,5.8,5.8,58,0.00,CLR,,0.00,WeatherDisplay:10.37,2013-01-12 02:12:00,
2013-01-11 20:17:00,67.5,52.2,29.83,ESE,112,4.6,4.6,58,0.00,CLR,,0.00,WeatherDisplay:10.37,2013-01-12 02:17:00,
2013-01-11 20:22:00,67.5,52.2,29.83,East,90,4.6,4.6,58,0.00,CLR,,0.00,WeatherDisplay:10.37,2013-01-12 02:22:00,
2013-01-11 20:27:00,67.5,52.2,29.83,East,90,4.6,4.6,58,0.00,CLR,,0.00,WeatherDisplay:10.37,2013-01-12 02:27:00,
2013-01-11 20:32:00,67.3,52.0,29.86,East,90,4.6,4.6,58,0.00,SCT,,0.00,WeatherDisplay:10.37,2013-01-12 02:32:00,
2013-01-11 20:37:00,67.3,52.0,29.86,ENE,68,3.5,3.5,58,0.00,SCT,,0.00,WeatherDisplay:10.37,2013-01-12 02:37:00,
2013-01-11 20:42:00,67.3,52.0,29.86,East,90,5.8,5.8,58,0.00,SCT,,0.00,WeatherDisplay:10.37,2013-01-12 02:42:00,
2013-01-11 20:47:00,67.5,52.2,29.86,NE,45,3.5,3.5,58,0.00,SCT,,0.00,WeatherDisplay:10.37,2013-01-12 02:47:00,
2013-01-11 20:52:00,67.5,52.2,29.86,SE,135,2.3,2.4,58,0.00,BKN,,0.00,WeatherDisplay:10.37,2013-01-12 02:52:00,
2013-01-11 20:57:00,67.6,52.3,29.86,SE,135,3.5,3.5,58,0.00,BKN,,0.00,WeatherDisplay:10.37,2013-01-12 02:57:00,
2013-01-11 21:02:00,67.8,52.5,29.86,ESE,112,4.6,4.6,58,0.00,BKN,,0.00,WeatherDisplay:10.37,2013-01-12 03:02:00,
2013-01-11 21:07:00,67.8,52.5,29.86,East,90,4.6,4.6,58,0.00,BKN,,0.00,WeatherDisplay:10.37,2013-01-12 03:07:00,
2013-01-11 21:12:00,68.0,52.7,29.86,SE,135,5.8,5.8,58,0.00,BKN,,0.00,WeatherDisplay:10.37,2013-01-12 03:12:00,
2013-01-11 21:17:00,68.0,52.7,29.86,East,90,5.8,5.8,58,0.00,BKN,,0.00,WeatherDisplay:10.37,2013-01-12 03:17:00,
2013-01-11 21:22:00,68.0,52.7,29.86,ENE,68,6.9,6.9,58,0.00,OVC,,0.00,WeatherDisplay:10.37,2013-01-12 03:22:00,
2013-01-11 21:27:00,67.8,52.5,29.86,ESE,112,4.6,4.6,58,0.00,OVC,,0.00,WeatherDisplay:10.37,2013-01-12 03:27:00,
2013-01-11 21:32:00,68.0,52.7,29.86,ENE,68,5.8,5.8,58,0.00,OVC,,0.00,WeatherDisplay:10.37,2013-01-12 03:32:00,
2013-01-11 21:37:00,67.8,52.5,29.86,ESE,112,5.8,5.8,58,0.00,OVC,,0.00,WeatherDisplay:10.37,2013-01-12 03:37:00,
2013-01-11 21:42:00,67.8,52.5,29.86,ESE,112,6.9,6.9,58,0.00,OVC,,0.00,WeatherDisplay:10.37,2013-01-12 03:42:00,
2013-01-11 21:47:00,67.8,52.5,29.86,SE,135,2.3,2.4,58,0.00,OVC,,0.00,WeatherDisplay:10.37,2013-01-12 03:47:00,
2013-01-11 21:52:00,67.8,52.5,29.86,ESE,112,5.8,5.8,58,0.00,OVC,,0.00,WeatherDisplay:10.37,2013-01-12 03:52:00,
2013-01-11 21:57:00,67.6,52.3,29.86,SE,135,3.5,3.5,58,0.00,OVC,,0.00,WeatherDisplay:10.37,2013-01-12 03:57:00,
2013-01-11 22:02:00,67.6,52.3,29.86,East,90,2.3,2.3,58,0.00,OVC,,0.00,WeatherDisplay:10.37,2013-01-12 04:02:00,
2013-01-11 22:07:00,67.6,52.3,29.86,SSE,158,4.6,4.6,58,0.00,OVC,,0.00,WeatherDisplay:10.37,2013-01-12 04:07:00,
2013-01-11 22:12:00,67.6,52.3,29.86,SE,135,5.8,5.8,58,0.00,OVC,,0.00,WeatherDisplay:10.37,2013-01-12 04:12:00,
2013-01-11 22:17:00,67.5,52.2,29.86,ESE,112,5.8,5.8,58,0.00,OVC,,0.00,WeatherDisplay:10.37,2013-01-12 04:17:00,
2013-01-11 22:22:00,67.5,52.2,29.86,East,90,9.2,9.2,58,0.00,OVC,,0.00,WeatherDisplay:10.37,2013-01-12 04:22:00,
2013-01-11 22:27:00,67.5,52.2,29.86,ESE,112,3.5,3.5,58,0.00,OVC,,0.00,WeatherDisplay:10.37,2013-01-12 04:27:00,
2013-01-11 22:32:00,67.5,52.2,29.86,East,90,4.6,4.6,58,0.00,OVC,,0.00,WeatherDisplay:10.37,2013-01-12 04:32:00,
2013-01-11 22:37:00,67.3,52.0,29.86,East,90,4.6,4.6,58,0.00,OVC,,0.00,WeatherDisplay:10.37,2013-01-12 04:37:00,
2013-01-11 22:42:00,67.3,52.0,29.86,SSE,158,3.5,3.8,58,0.00,OVC,,0.00,WeatherDisplay:10.37,2013-01-12 04:42:00,
2013-01-11 22:47:00,67.3,52.0,29.86,ESE,112,3.5,3.5,58,0.00,OVC,,0.00,WeatherDisplay:10.37,2013-01-12 04:47:00,
2013-01-11 22:52:00,67.1,51.8,29.86,East,90,5.8,5.8,58,0.00,OVC,,0.00,WeatherDisplay:10.37,2013-01-12 04:52:00,
2013-01-11 22:57:00,67.1,51.8,29.86,ESE,112,5.8,5.8,58,0.00,OVC,,0.00,WeatherDisplay:10.37,2013-01-12 04:57:00,
2013-01-11 23:00:00,67.1,51.8,29.86,East,90,3.5,3.5,58,0.00,OVC,,0.00,WeatherDisplay:10.37,2013-01-12 05:00:00,
2013-01-11 23:02:00,67.1,51.8,29.86,ENE,68,5.8,5.8,58,0.00,OVC,,0.00,WeatherDisplay:10.37,2013-01-12 05:02:00,
2013-01-11 23:03:00,67.1,51.8,29.86,ENE,68,3.5,3.5,58,0.00,OVC,,0.00,WeatherDisplay:10.37,2013-01-12 05:03:00,
2013-01-11 23:08:00,67.1,51.8,29.86,NE,45,4.6,4.6,58,0.00,OVC,,0.00,WeatherDisplay:10.37,2013-01-12 05:08:00,
2013-01-11 23:13:00,67.1,51.8,29.86,SE,135,4.6,4.6,58,0.00,OVC,,0.00,WeatherDisplay:10.37,2013-01-12 05:13:00,
2013-01-11 23:18:00,67.1,51.8,29.86,East,90,5.8,5.8,58,0.00,OVC,,0.00,WeatherDisplay:10.37,2013-01-12 05:18:00,
2013-01-11 23:23:00,67.1,51.8,29.86,ESE,112,8.1,8.1,58,0.00,OVC,,0.00,WeatherDisplay:10.37,2013-01-12 05:23:00,
2013-01-11 23:28:00,67.1,51.8,29.83,SE,135,3.5,3.5,58,0.00,OVC,,0.00,WeatherDisplay:10.37,2013-01-12 05:28:00,
2013-01-11 23:33:00,67.1,51.8,29.83,East,90,4.7,4.7,58,0.00,OVC,,0.00,WeatherDisplay:10.37,2013-01-12 05:33:00,
2013-01-11 23:38:00,67.1,51.8,29.83,ESE,112,5.8,5.8,58,0.00,OVC,,0.00,WeatherDisplay:10.37,2013-01-12 05:38:00,
2013-01-11 23:43:00,66.9,51.7,29.86,ESE,112,4.6,4.6,58,0.00,OVC,,0.00,WeatherDisplay:10.37,2013-01-12 05:43:00,
2013-01-11 23:48:00,66.9,51.7,29.86,ESE,112,4.6,4.6,58,0.00,OVC,,0.00,WeatherDisplay:10.37,2013-01-12 05:48:00,
2013-01-11 23:53:00,66.9,55.2,29.86,East,90,12.5,12.5,66,0.00,OVC,,0.00,WeatherDisplay:10.37,2013-01-12 05:53:00,
2013-01-11 23:58:00,66.9,55.2,29.83,SE,135,5.8,5.8,66,0.00,OVC,,0.00,WeatherDisplay:10.37,2013-01-12 05:58:00,